createdAt,value
2022-10-23T00:01:00.404Z,7.97
2022-10-23T00:03:29.840Z,7.85
2022-10-23T00:05:56.467Z,8.40
2022-10-23T00:08:23.288Z,8.18
2022-10-23T00:10:49.926Z,8.10
2022-10-23T00:13:16.564Z,8.63
2022-10-23T00:15:43.407Z,8.35
2022-10-23T00:18:10.187Z,8.32
2022-10-23T00:20:38.467Z,7.75
2022-10-23T00:23:05.292Z,7.78
2022-10-23T00:25:33.393Z,7.53
2022-10-23T00:28:00.366Z,7.38
2022-10-23T00:30:27.357Z,8.10
2022-10-23T00:32:54.000Z,8.43
2022-10-23T00:35:20.661Z,7.93
2022-10-23T00:37:48.817Z,8.35
2022-10-23T00:40:16.394Z,8.63
2022-10-23T00:42:43.302Z,8.05
2022-10-23T00:45:18.912Z,8.00
2022-10-23T00:47:45.973Z,7.78
2022-10-23T00:50:13.520Z,7.93
2022-10-23T00:52:45.450Z,8.20
2022-10-23T00:55:14.351Z,7.53
2022-10-23T00:57:43.697Z,7.82
2022-10-23T01:00:15.079Z,8.35
2022-10-23T01:02:42.195Z,7.65
2022-10-23T01:05:09.967Z,7.82
2022-10-23T01:07:43.568Z,7.30
2022-10-23T01:10:16.062Z,7.38
2022-10-23T01:12:48.698Z,8.02
2022-10-23T01:15:19.540Z,7.80
2022-10-23T01:17:51.177Z,7.38
2022-10-23T01:20:36.444Z,7.70
2022-10-23T01:23:28.229Z,7.75
2022-10-23T01:26:12.772Z,8.40
2022-10-23T01:28:46.911Z,7.40
2022-10-23T01:31:18.579Z,7.93
2022-10-23T01:33:49.074Z,7.95
2022-10-23T01:36:19.156Z,7.95
2022-10-23T01:38:51.773Z,7.82
2022-10-23T01:41:24.793Z,7.43
2022-10-23T01:43:57.407Z,7.50
2022-10-23T01:46:25.963Z,7.55
2022-10-23T01:48:54.915Z,7.95
2022-10-23T01:51:26.175Z,7.25
2022-10-23T01:53:58.138Z,8.00
2022-10-23T01:56:28.719Z,7.75
2022-10-23T01:58:59.964Z,7.55
2022-10-23T02:01:29.984Z,7.30
2022-10-23T02:06:24.309Z,7.65
2022-10-23T02:08:51.024Z,7.72
2022-10-23T02:11:22.677Z,7.78
2022-10-23T02:13:55.498Z,7.97
2022-10-23T02:16:30.535Z,7.95
2022-10-23T02:19:09.353Z,7.35
2022-10-23T02:21:48.357Z,8.52
2022-10-23T02:24:18.801Z,8.13
2022-10-23T02:26:52.595Z,7.47
2022-10-23T02:29:24.956Z,8.52
2022-10-23T02:31:52.970Z,7.70
2022-10-23T02:34:19.870Z,7.87
2022-10-23T02:36:46.483Z,7.72
2022-10-23T02:39:13.184Z,7.72
2022-10-23T02:41:44.946Z,7.85
2022-10-23T02:44:22.605Z,7.68
2022-10-23T02:46:56.343Z,7.65
2022-10-23T02:49:31.355Z,7.97
2022-10-23T02:52:07.753Z,7.22
2022-10-23T02:54:51.201Z,7.47
2022-10-23T02:57:26.405Z,7.60
2022-10-23T03:00:01.153Z,7.13
2022-10-23T03:02:37.682Z,7.32
2022-10-23T03:05:08.640Z,7.22
2022-10-23T03:07:36.109Z,6.90
2022-10-23T03:10:04.787Z,6.85
2022-10-23T03:12:31.410Z,7.95
2022-10-23T03:14:59.633Z,6.63
2022-10-23T03:17:27.197Z,7.43
2022-10-23T03:19:55.347Z,7.45
2022-10-23T03:22:21.961Z,6.97
2022-10-23T03:24:48.619Z,7.43
2022-10-23T03:27:16.772Z,7.45
2022-10-23T03:29:43.449Z,7.47
2022-10-23T03:32:10.068Z,6.57
2022-10-23T03:34:36.686Z,7.13
2022-10-23T03:37:05.565Z,6.90
2022-10-23T03:39:32.178Z,6.80
2022-10-23T03:41:59.019Z,6.80
2022-10-23T03:44:26.239Z,6.57
2022-10-23T03:46:52.903Z,6.88
2022-10-23T03:49:19.556Z,6.60
2022-10-23T03:51:51.967Z,6.40
2022-10-23T03:54:22.399Z,6.75
2022-10-23T03:56:51.453Z,6.80
2022-10-23T03:59:20.651Z,6.82
2022-10-23T04:01:47.626Z,6.60
2022-10-23T04:04:15.106Z,6.65
2022-10-23T04:06:41.905Z,7.15
2022-10-23T04:09:08.763Z,6.93
2022-10-23T04:11:37.111Z,7.00
2022-10-23T04:14:04.011Z,7.00
2022-10-23T04:16:30.712Z,6.70
2022-10-23T04:18:57.346Z,6.72
2022-10-23T04:21:23.993Z,6.20
2022-10-23T04:23:50.630Z,5.80
2022-10-23T04:26:17.665Z,6.18
2022-10-23T04:28:45.626Z,5.97
2022-10-23T04:31:12.391Z,5.87
2022-10-23T04:33:39.073Z,6.07
2022-10-23T04:36:06.641Z,5.57
2022-10-23T04:38:33.292Z,5.75
2022-10-23T04:40:59.935Z,6.22
2022-10-23T04:43:26.831Z,6.30
2022-10-23T04:45:55.789Z,5.50
2022-10-23T04:48:25.564Z,6.15
2022-10-23T04:50:56.590Z,5.80
2022-10-23T04:53:23.605Z,5.80
2022-10-23T04:55:50.842Z,5.85
2022-10-23T04:58:18.945Z,5.97
2022-10-23T05:00:46.238Z,6.68
2022-10-23T05:03:17.783Z,5.82
2022-10-23T05:05:44.873Z,6.38
2022-10-23T05:08:15.556Z,6.13
2022-10-23T05:10:47.212Z,5.75
2022-10-23T05:13:13.903Z,5.95
2022-10-23T05:15:40.611Z,5.30
2022-10-23T05:18:12.001Z,5.93
2022-10-23T05:20:40.577Z,5.93
2022-10-23T05:23:10.512Z,5.20
2022-10-23T05:25:37.274Z,5.45
2022-10-23T05:28:06.350Z,5.57
2022-10-23T05:30:33.862Z,5.82
2022-10-23T05:33:01.741Z,5.45
2022-10-23T05:35:30.208Z,5.50
2022-10-23T05:37:59.900Z,5.63
2022-10-23T05:40:27.561Z,5.43
2022-10-23T05:42:54.232Z,5.22
2022-10-23T05:45:20.980Z,5.57
2022-10-23T05:47:49.167Z,5.60
2022-10-23T05:50:16.879Z,5.65
2022-10-23T05:52:47.379Z,5.47
2022-10-23T05:55:15.833Z,5.22
2022-10-23T05:57:42.913Z,5.43
2022-10-23T06:00:11.311Z,5.40
2022-10-23T06:02:38.086Z,5.28
2022-10-23T06:05:05.218Z,5.20
2022-10-23T06:07:35.142Z,5.53
2022-10-23T06:10:03.204Z,5.60
2022-10-23T06:12:31.574Z,5.00
2022-10-23T06:14:58.391Z,5.15
2022-10-23T06:17:24.988Z,5.90
2022-10-23T06:19:51.642Z,5.38
2022-10-23T06:24:45.065Z,6.15
2022-10-23T06:27:11.666Z,6.32
2022-10-23T06:29:41.574Z,5.97
2022-10-23T06:32:08.284Z,6.13
2022-10-23T06:34:34.964Z,5.90
2022-10-23T06:37:01.967Z,6.18
2022-10-23T06:39:31.254Z,6.03
2022-10-23T06:41:58.932Z,5.45
2022-10-23T06:44:25.568Z,5.55
2022-10-23T06:46:56.061Z,6.03
2022-10-23T06:49:22.698Z,5.55
2022-10-23T06:51:49.340Z,5.63
2022-10-23T06:54:15.965Z,5.93
2022-10-23T06:56:42.580Z,5.80
2022-10-23T06:59:09.172Z,5.85
2022-10-23T07:01:36.122Z,5.22
2022-10-23T07:04:06.473Z,5.60
2022-10-23T07:06:33.325Z,5.78
2022-10-23T07:09:00.136Z,6.10
2022-10-23T07:11:27.466Z,5.50
2022-10-23T07:13:54.072Z,5.72
2022-10-23T07:16:22.513Z,5.53
2022-10-23T07:18:58.701Z,5.80
2022-10-23T07:21:27.184Z,6.00
2022-10-23T07:23:53.833Z,5.70
2022-10-23T07:26:20.523Z,5.75
2022-10-23T07:28:48.571Z,5.55
2022-10-23T07:31:15.217Z,5.68
2022-10-23T07:33:41.839Z,5.65
2022-10-23T07:36:09.782Z,6.18
2022-10-23T07:38:37.735Z,5.67
2022-10-23T07:41:07.781Z,5.90
2022-10-23T07:43:36.734Z,5.85
2022-10-23T07:46:03.443Z,5.65
2022-10-23T07:48:30.803Z,5.90
2022-10-23T07:50:58.359Z,6.78
2022-10-23T07:53:25.962Z,5.68
2022-10-23T07:55:55.600Z,5.47
2022-10-23T07:58:22.817Z,5.28
2022-10-23T08:00:54.953Z,5.40
2022-10-23T08:03:21.795Z,5.30
2022-10-23T08:05:48.507Z,5.43
2022-10-23T08:08:15.516Z,5.45
2022-10-23T08:10:42.682Z,5.32
2022-10-23T08:13:13.256Z,5.03
2022-10-23T08:15:40.385Z,5.15
2022-10-23T08:18:08.213Z,5.05
2022-10-23T08:20:39.130Z,4.65
2022-10-23T08:23:06.215Z,5.15
2022-10-23T08:28:06.333Z,5.28
2022-10-23T08:30:34.781Z,4.95
2022-10-23T08:33:03.279Z,4.82
2022-10-23T08:35:29.946Z,5.18
2022-10-23T08:37:56.769Z,5.07
2022-10-23T08:40:25.393Z,4.72
2022-10-23T08:42:58.996Z,5.72
2022-10-23T08:45:31.288Z,4.40
2022-10-23T08:48:09.440Z,5.00
2022-10-23T08:50:41.612Z,4.45
2022-10-23T08:53:16.065Z,4.80
2022-10-23T08:55:46.236Z,4.18
2022-10-23T08:58:18.426Z,4.82
2022-10-23T09:00:47.542Z,4.53
2022-10-23T09:03:16.394Z,4.43
2022-10-23T09:08:30.529Z,3.97
2022-10-23T09:11:05.182Z,3.90
2022-10-23T09:13:50.139Z,4.13
2022-10-23T09:16:29.122Z,4.63
2022-10-23T09:18:58.357Z,4.50
2022-10-23T09:21:27.415Z,4.40
2022-10-23T09:23:54.123Z,4.45
2022-10-23T09:26:22.876Z,4.15
2022-10-23T09:31:18.445Z,3.97
2022-10-23T09:33:54.791Z,4.68
2022-10-23T09:36:24.508Z,4.18
2022-10-23T09:38:53.522Z,4.85
2022-10-23T09:41:23.278Z,4.53
2022-10-23T09:44:14.174Z,4.32
2022-10-23T09:46:42.674Z,4.35
2022-10-23T09:49:17.297Z,4.53
2022-10-23T09:52:01.533Z,4.60
2022-10-23T09:54:31.213Z,4.50
2022-10-23T09:57:05.084Z,4.45
2022-10-23T09:59:32.724Z,4.13
2022-10-23T10:02:01.139Z,4.13
2022-10-23T10:04:32.375Z,4.18
2022-10-23T10:07:02.036Z,4.30
2022-10-23T10:09:28.863Z,4.07
2022-10-23T10:11:59.285Z,3.90
2022-10-23T10:15:01.674Z,4.47
2022-10-23T10:17:39.458Z,3.92
2022-10-23T10:20:29.913Z,4.13
2022-10-23T10:23:06.243Z,4.28
2022-10-23T10:25:40.217Z,4.28
2022-10-23T10:28:27.578Z,4.00
2022-10-23T10:31:08.773Z,3.85
2022-10-23T10:33:44.444Z,3.97
2022-10-23T10:39:01.463Z,4.28
2022-10-23T10:41:51.983Z,3.80
2022-10-23T10:44:41.303Z,3.80
2022-10-23T10:47:18.477Z,4.00
2022-10-23T10:49:59.734Z,3.90
2022-10-23T10:55:07.007Z,3.35
2022-10-23T10:57:39.307Z,3.85
2022-10-23T11:00:14.349Z,4.38
2022-10-23T11:02:46.557Z,3.70
2022-10-23T11:05:22.224Z,3.92
2022-10-23T11:07:55.546Z,3.90
2022-10-23T11:10:24.002Z,4.28
2022-10-23T11:12:51.501Z,3.70
2022-10-23T11:15:23.483Z,3.75
2022-10-23T11:17:54.951Z,3.75
2022-10-23T11:20:50.969Z,3.53
2022-10-23T11:23:46.247Z,3.70
2022-10-23T11:26:27.344Z,3.70
2022-10-23T11:29:13.425Z,3.55
2022-10-23T11:31:53.444Z,3.45
2022-10-23T11:34:54.411Z,3.47
2022-10-23T11:37:22.965Z,3.25
2022-10-23T11:40:04.508Z,3.22
2022-10-23T11:42:45.810Z,3.10
2022-10-23T11:45:30.950Z,3.60
2022-10-23T11:47:59.524Z,3.65
2022-10-23T11:50:32.826Z,3.38
2022-10-23T11:53:15.009Z,3.60
2022-10-23T11:55:58.106Z,3.60
2022-10-23T11:58:32.103Z,3.83
2022-10-23T12:01:04.289Z,3.58
2022-10-23T12:03:39.876Z,3.72
2022-10-23T12:06:08.964Z,3.70
2022-10-23T12:08:40.862Z,3.70
2022-10-23T12:11:29.880Z,3.60
2022-10-23T12:13:58.035Z,3.50
2022-10-23T12:16:35.199Z,3.20
2022-10-23T12:19:17.907Z,3.72
2022-10-23T12:21:44.960Z,3.50
2022-10-23T12:24:34.719Z,3.50
2022-10-23T12:27:08.874Z,4.00
2022-10-23T12:29:49.768Z,3.20
2022-10-23T12:32:27.921Z,4.00
2022-10-23T12:35:13.059Z,3.55
2022-10-23T12:37:55.897Z,3.40
2022-10-23T12:40:29.840Z,3.42
2022-10-23T12:42:58.523Z,3.80
2022-10-23T12:47:54.670Z,3.08
2022-10-23T12:50:22.840Z,3.30
2022-10-23T12:52:54.552Z,3.47
2022-10-23T12:55:21.963Z,3.05
2022-10-23T12:57:48.824Z,3.40
2022-10-23T13:00:17.351Z,3.15
2022-10-23T13:02:46.236Z,3.58
2022-10-23T13:05:17.384Z,3.00
2022-10-23T13:07:47.628Z,3.15
2022-10-23T13:10:16.278Z,3.15
2022-10-23T13:15:18.519Z,3.28
2022-10-23T13:18:00.997Z,3.10
2022-10-23T13:20:29.744Z,2.83
2022-10-23T13:23:00.827Z,3.00
2022-10-23T13:25:30.849Z,3.40
2022-10-23T13:28:12.939Z,2.45
2022-10-23T13:30:42.779Z,2.63
2022-10-23T13:33:23.463Z,2.40
2022-10-23T13:35:57.758Z,2.33
2022-10-23T13:38:32.705Z,2.15
2022-10-23T13:41:00.718Z,2.40
2022-10-23T13:43:28.290Z,2.33
2022-10-23T13:45:55.680Z,1.88
2022-10-23T13:48:24.475Z,2.08
2022-10-23T13:50:51.506Z,2.10
2022-10-23T13:53:18.328Z,2.20
2022-10-23T13:55:48.962Z,2.08
2022-10-23T13:58:15.603Z,2.20
2022-10-23T14:00:43.776Z,2.08
2022-10-23T14:03:11.154Z,2.33
2022-10-23T14:05:39.227Z,2.30
2022-10-23T14:08:06.643Z,2.13
2022-10-23T14:10:33.909Z,2.40
2022-10-23T14:13:00.610Z,2.35
2022-10-23T14:15:27.278Z,2.13
2022-10-23T14:17:58.937Z,2.33
2022-10-23T14:20:27.876Z,1.92
2022-10-23T14:22:56.246Z,2.27
2022-10-23T14:25:23.247Z,2.33
2022-10-23T14:27:49.983Z,2.40
2022-10-23T14:30:16.729Z,2.63
2022-10-23T14:32:44.460Z,2.03
2022-10-23T14:35:11.419Z,2.20
2022-10-23T14:37:39.452Z,2.28
2022-10-23T14:40:08.899Z,2.20
2022-10-23T14:42:35.743Z,2.45
2022-10-23T14:45:02.719Z,2.25
2022-10-23T14:47:29.758Z,2.38
2022-10-23T14:49:56.652Z,2.35
2022-10-23T14:52:23.837Z,2.35
2022-10-23T14:54:51.574Z,2.20
2022-10-23T14:57:21.765Z,2.33
2022-10-23T14:59:49.317Z,2.40
2022-10-23T15:02:16.899Z,2.22
2022-10-23T15:04:43.659Z,2.50
2022-10-23T15:07:10.497Z,2.10
2022-10-23T15:09:37.446Z,2.15
2022-10-23T15:12:04.569Z,2.30
2022-10-23T15:14:33.947Z,2.42
2022-10-23T15:17:00.621Z,2.30
2022-10-23T15:19:27.414Z,2.00
2022-10-23T15:21:54.259Z,2.17
2022-10-23T15:24:21.084Z,2.03
2022-10-23T15:26:48.616Z,2.45
2022-10-23T15:29:16.356Z,2.10
2022-10-23T15:31:47.724Z,2.57
2022-10-23T15:34:17.099Z,2.47
2022-10-23T15:36:45.038Z,2.22
2022-10-23T15:39:12.946Z,2.55
2022-10-23T15:41:40.980Z,2.58
2022-10-23T15:44:09.350Z,2.35
2022-10-23T15:46:36.416Z,2.20
2022-10-23T15:49:04.932Z,2.25
2022-10-23T15:51:32.300Z,2.08
2022-10-23T15:53:59.289Z,2.40
2022-10-23T15:56:26.441Z,2.60
2022-10-23T15:58:53.124Z,3.25
2022-10-23T16:01:20.932Z,2.40
2022-10-23T16:03:47.622Z,2.13
2022-10-23T16:06:20.211Z,2.47
2022-10-23T16:08:47.492Z,2.70
2022-10-23T16:11:16.755Z,2.95
2022-10-23T16:13:43.959Z,2.72
2022-10-23T16:16:11.203Z,2.30
2022-10-23T16:18:38.109Z,2.63
2022-10-23T16:21:05.214Z,2.72
2022-10-23T16:23:33.944Z,2.80
2022-10-23T16:26:07.763Z,2.38
2022-10-23T16:28:34.612Z,2.85
2022-10-23T16:31:01.364Z,2.90
2022-10-23T16:33:27.939Z,2.65
2022-10-23T16:35:54.660Z,2.60
2022-10-23T16:38:21.263Z,3.00
2022-10-23T16:40:53.824Z,2.58
2022-10-23T16:43:20.424Z,2.85
2022-10-23T16:45:47.207Z,2.83
2022-10-23T16:48:13.777Z,3.03
2022-10-23T16:50:41.437Z,2.90
2022-10-23T16:53:08.075Z,2.67
2022-10-23T16:55:34.749Z,2.42
2022-10-23T16:58:03.667Z,2.70
2022-10-23T17:00:35.327Z,2.70
2022-10-23T17:03:03.172Z,2.78
2022-10-23T17:05:33.304Z,2.70
2022-10-23T17:08:00.715Z,2.90
2022-10-23T17:10:27.663Z,2.53
2022-10-23T17:12:54.441Z,2.85
2022-10-23T17:15:24.022Z,3.05
2022-10-23T17:17:50.927Z,3.00
2022-10-23T17:20:21.993Z,2.70
2022-10-23T17:22:49.525Z,3.55
2022-10-23T17:25:17.495Z,2.83
2022-10-23T17:27:46.416Z,3.00
2022-10-23T17:30:13.410Z,2.83
2022-10-23T17:32:41.954Z,2.95
2022-10-23T17:35:13.070Z,3.38
2022-10-23T17:37:42.323Z,3.20
2022-10-23T17:40:09.924Z,3.28
2022-10-23T17:42:36.690Z,3.08
2022-10-23T17:45:03.571Z,3.08
2022-10-23T17:47:30.591Z,2.95
2022-10-23T17:49:58.740Z,3.08
2022-10-23T17:52:25.543Z,2.58
2022-10-23T17:54:52.891Z,2.88
2022-10-23T17:57:19.641Z,3.10
2022-10-23T17:59:46.373Z,2.90
2022-10-23T18:02:13.113Z,3.15
2022-10-23T18:04:39.969Z,2.97
2022-10-23T18:07:08.175Z,3.00
2022-10-23T18:09:34.907Z,3.05
2022-10-23T18:12:01.596Z,2.88
2022-10-23T18:14:29.556Z,2.95
2022-10-23T18:16:56.570Z,2.90
2022-10-23T18:19:23.638Z,3.00
2022-10-23T18:21:50.416Z,3.00
2022-10-23T18:24:19.634Z,3.20
2022-10-23T18:26:48.184Z,3.00
2022-10-23T18:31:44.787Z,2.63
2022-10-23T18:34:15.601Z,2.80
2022-10-23T18:36:42.231Z,3.00
2022-10-23T18:39:12.599Z,3.00
2022-10-23T18:41:46.266Z,3.47
2022-10-23T18:44:19.047Z,3.22
2022-10-23T18:46:47.038Z,3.10
2022-10-23T18:49:14.731Z,2.95
2022-10-23T18:51:41.678Z,2.88
2022-10-23T18:54:11.108Z,3.15
2022-10-23T18:56:39.685Z,2.83
2022-10-23T19:01:36.718Z,2.80
2022-10-23T19:04:04.131Z,3.17
2022-10-23T19:06:35.818Z,3.00
2022-10-23T19:09:06.033Z,3.00
2022-10-23T19:11:33.023Z,3.25
2022-10-23T19:13:59.670Z,2.70
2022-10-23T19:16:30.840Z,2.85
2022-10-23T19:19:00.477Z,3.08
2022-10-23T19:21:31.682Z,2.95
2022-10-23T19:24:01.342Z,2.78
2022-10-23T19:26:29.902Z,2.80
2022-10-23T19:28:58.879Z,3.10
2022-10-23T19:31:27.399Z,2.55
2022-10-23T19:33:54.455Z,2.78
2022-10-23T19:36:23.405Z,2.60
2022-10-23T19:38:50.224Z,2.80
2022-10-23T19:41:24.470Z,2.58
2022-10-23T19:43:51.198Z,2.83
2022-10-23T19:46:17.933Z,2.60
2022-10-23T19:48:46.868Z,2.75
2022-10-23T19:51:13.725Z,2.33
2022-10-23T19:53:41.373Z,2.65
2022-10-23T19:56:10.769Z,2.50
2022-10-23T19:58:37.584Z,2.75
2022-10-23T20:01:09.554Z,2.72
2022-10-23T20:03:36.298Z,2.80
2022-10-23T20:06:04.458Z,2.30
2022-10-23T20:08:34.246Z,2.33
2022-10-23T20:11:02.009Z,2.80
2022-10-23T20:13:28.800Z,2.88
2022-10-23T20:15:55.572Z,2.63
2022-10-23T20:18:22.359Z,2.28
2022-10-23T20:20:49.370Z,2.55
2022-10-23T20:23:17.548Z,1.90
2022-10-23T20:25:44.239Z,1.80
2022-10-23T20:28:14.255Z,1.85
2022-10-23T20:30:42.508Z,2.00
2022-10-23T20:33:09.421Z,1.90
2022-10-23T20:35:40.433Z,1.65
2022-10-23T20:38:08.577Z,1.70
2022-10-23T20:40:36.839Z,1.38
2022-10-23T20:43:03.574Z,1.70
2022-10-23T20:45:30.256Z,1.70
2022-10-23T20:47:57.132Z,1.52
2022-10-23T20:50:24.494Z,1.50
2022-10-23T20:52:51.844Z,1.30
2022-10-23T20:55:19.370Z,1.38
2022-10-23T20:57:47.562Z,1.25
2022-10-23T21:00:15.611Z,1.30
2022-10-23T21:02:44.878Z,1.30
2022-10-23T21:05:13.903Z,1.20
2022-10-23T21:07:40.569Z,1.20
2022-10-23T21:10:08.121Z,1.00
2022-10-23T21:12:35.482Z,1.13
2022-10-23T21:15:03.842Z,0.98
2022-10-23T21:17:35.681Z,0.90
2022-10-23T21:20:02.788Z,0.95
2022-10-23T21:22:29.739Z,1.55
2022-10-23T21:24:58.352Z,1.08
2022-10-23T21:29:51.648Z,1.00
2022-10-23T21:32:20.848Z,1.00
2022-10-23T21:34:47.555Z,1.15
2022-10-23T21:37:14.882Z,1.23
2022-10-23T21:39:42.473Z,1.10
2022-10-23T21:42:09.446Z,1.00
2022-10-23T21:44:36.255Z,1.30
2022-10-23T21:47:02.822Z,1.17
2022-10-23T21:49:30.973Z,1.20
2022-10-23T21:51:57.602Z,1.25
2022-10-23T21:54:24.300Z,1.38
2022-10-23T21:56:53.930Z,1.27
2022-10-23T21:59:22.962Z,1.17
2022-10-23T22:01:50.272Z,1.33
2022-10-23T22:04:19.087Z,1.20
2022-10-23T22:06:48.620Z,1.38
2022-10-23T22:09:19.412Z,1.30
2022-10-23T22:11:46.518Z,1.40
2022-10-23T22:14:13.330Z,1.63
2022-10-23T22:16:41.878Z,1.52
2022-10-23T22:19:10.695Z,1.83
2022-10-23T22:21:37.564Z,1.60
2022-10-23T22:24:06.308Z,2.17
2022-10-23T22:26:35.748Z,1.88
2022-10-23T22:29:05.631Z,1.88
2022-10-23T22:31:33.748Z,1.77
2022-10-23T22:34:13.031Z,1.83
2022-10-23T22:36:48.305Z,1.73
2022-10-23T22:39:16.296Z,2.17
2022-10-23T22:41:47.471Z,2.30
2022-10-23T22:44:14.913Z,1.98
2022-10-23T22:46:42.313Z,1.83
2022-10-23T22:49:09.441Z,1.95
2022-10-23T22:51:38.923Z,1.77
2022-10-23T22:54:06.054Z,2.15
2022-10-23T22:56:34.443Z,2.55
2022-10-23T22:59:01.371Z,1.90
2022-10-23T23:01:31.398Z,1.83
2022-10-23T23:04:08.651Z,1.88
2022-10-23T23:06:45.701Z,2.10
2022-10-23T23:09:14.208Z,2.25
2022-10-23T23:11:51.915Z,2.72
2022-10-23T23:14:22.978Z,2.22
2022-10-23T23:16:51.774Z,2.42
2022-10-23T23:19:18.657Z,2.55
2022-10-23T23:21:45.313Z,2.50
2022-10-23T23:24:12.159Z,2.15
2022-10-23T23:26:38.882Z,2.40
2022-10-23T23:29:07.217Z,2.40
2022-10-23T23:31:33.952Z,2.60
2022-10-23T23:34:01.007Z,2.15
2022-10-23T23:36:28.613Z,2.40
2022-10-23T23:38:56.816Z,2.60
2022-10-23T23:41:24.544Z,2.53
2022-10-23T23:43:54.278Z,2.30
2022-10-23T23:46:22.405Z,2.20
2022-10-23T23:48:49.857Z,2.28
2022-10-23T23:51:18.812Z,2.35
2022-10-23T23:53:45.638Z,2.50
2022-10-23T23:56:12.251Z,2.40
2022-10-23T23:58:38.983Z,2.65
